Washington, DC (20003)

6:14 PM EDT on May 05, 2015 (GMT -0400)
Capitol Hill, Washington, DC USA | | Change Station
CLOSE
Current Station
Personal Weather Station
Location: Washington, DC
Elevation: 92 ft
Nearby Weather Stations

Elev 92 ft 38.89 °N, 76.99 °W | Updated 7 minutes ago

Partly Cloudy
Partly Cloudy
78.6 °F
Feels Like 81 °F
N
6.0
Wind Variable Wind from WNW

Today
High -- | Low -- °F
--% Chance of Precip.
Yesterday
High -- | Low -- °F
Precip. -- in
6:05 AM 8:04 PM
Full, 97% visible
Pressure 30.19 in
Visibility 10.0 miles
Clouds Mostly Cloudy 6000 ft
Overcast 9000 ft
Heat Index 81 °F
Dew Point 66 °F
Humidity 66%
Rainfall 0.00 in
Snow Depth Not available.
UV 1 out of 12
Pollen 9.20 out of 12
Air Quality Not available.
Flu Activity Sporadic
SPECI KDCA 052205Z 27018KT 10SM -RA BKN060CB OVC090 24/17 A3019

More Conditions Fewer Conditions

Pressure 30.19 in
Visibility 10.0 miles
Clouds Mostly Cloudy 6000 ft
Overcast 9000 ft
Heat Index 81 °F
Dew Point 66 °F
Humidity 66%
Rainfall 0.00 in
Snow Depth Not available.
UV 1 out of 12
Pollen 9.20 out of 12
Air Quality Not available.
Flu Activity Sporadic
SPECI KDCA 052205Z 27018KT 10SM -RA BKN060CB OVC090 24/17 A3019

More Conditions Fewer Conditions

Nowcast | as of 6:13 PM EDT on May 5, 2015

a shower will affect the east central District of Columbia... central Prince Georges and central Anne Arundel counties... At 612 PM EDT...a shower was over Kenilworth...or over Bladensburg... moving east at 15 mph. Winds in excess of 30 mph are possible with this shower. Locations impacted include... Bowie...College Park...Greenbelt...Bladensburg...Upper Marlboro... Prince Georges stadium...Crofton...Forestville...Coral Hills... largo...Byrd stadium...fedex field...Andrews Air Force Base... Hyattsville...New Carrollton...Riverdale Park...Cheverly...Seat Pleasant...Mitchellville and Woodmore. Lat...Lon 3879 7657 3882 7694 3900 7696 3906 7659 3897 7658 3896 7660 3896 7658 time...Mot...loc 2212z 266deg 14kt 3892 7695

×

10-Day Weather Forecast

Almanac

Astronomy

May. 05, 2015 Rise Set
Actual Time
Civil Twilight
Nautical Twilight
Astronomical Twilight
Moon
Length of Visible Light
Length of Day
Tomorrow will be .
, % of the Moon is Illuminated

Today's Extremes

State Highs State Lows

Community

WunderPhotos

Upload Photos

1,818,994 photos uploaded!

WunderBlogs® & News

Nearby

Air Quality

  Air Quality AQ Index Pollutant
Not available.

Snow Depth

Station Depth Elevation

Earthquake Activity

City Distance Mag. Time & Date
Minimum magnitude displayed is 2.5.

Coastal Water Temperatures

Place Temperature

Stations

Nearby Weather Stations

Station Location Temp. Windchill Dew Point Humidity Wind Precip. Elev Updated Type